createdAt,value
2022-08-08T00:00:54.008Z,1022.05
2022-08-08T00:01:08.495Z,1022.04
2022-08-08T00:02:31.522Z,1022.06
2022-08-08T00:03:20.305Z,1022.05
2022-08-08T00:04:16.337Z,1022.03
2022-08-08T00:05:18.989Z,1022.03
2022-08-08T00:06:28.486Z,1022.00
2022-08-08T00:07:28.465Z,1022.00
2022-08-08T00:08:32.126Z,1022.01
2022-08-08T00:09:36.511Z,1021.98
2022-08-08T00:10:40.926Z,1021.96
2022-08-08T00:11:46.458Z,1021.96
2022-08-08T00:12:56.775Z,1021.95
2022-08-08T00:14:17.314Z,1021.96
2022-08-08T00:15:00.262Z,1021.96
2022-08-08T00:16:02.810Z,1021.96
2022-08-08T00:17:23.297Z,1021.96
2022-08-08T00:18:11.561Z,1021.96
2022-08-08T00:19:16.009Z,1021.95
2022-08-08T00:20:20.357Z,1021.96
2022-08-08T00:21:24.742Z,1021.95
2022-08-08T00:22:30.204Z,1021.95
2022-08-08T00:23:43.069Z,1021.95
2022-08-08T00:24:38.030Z,1021.94
2022-08-08T00:25:46.188Z,1021.94
2022-08-08T00:26:46.625Z,1021.95
2022-08-08T00:27:51.115Z,1021.96
2022-08-08T00:28:55.451Z,1021.96
2022-08-08T00:29:59.904Z,1021.96
2022-08-08T00:32:28.338Z,1021.95
2022-08-08T00:32:29.172Z,1021.94
2022-08-08T00:33:13.065Z,1021.93
2022-08-08T00:34:19.790Z,1021.93
2022-08-08T00:35:21.859Z,1021.95
2022-08-08T00:36:26.214Z,1021.95
2022-08-08T00:37:48.345Z,1021.96
2022-08-08T00:38:51.964Z,1021.95
2022-08-08T00:41:11.216Z,1021.92
2022-08-08T00:41:12.736Z,1021.91
2022-08-08T00:42:07.841Z,1021.90
2022-08-08T00:42:52.503Z,1021.88
2022-08-08T00:43:59.236Z,1021.86
2022-08-08T00:45:03.121Z,1021.86
2022-08-08T00:46:05.605Z,1021.85
2022-08-08T00:47:14.302Z,1021.86
2022-08-08T00:48:29.807Z,1021.83
2022-08-08T00:49:22.879Z,1021.84
2022-08-08T00:50:23.116Z,1021.82
2022-08-08T00:51:38.245Z,1021.82
2022-08-08T00:52:39.255Z,1021.82
2022-08-08T00:53:57.196Z,1021.81
2022-08-08T00:54:40.602Z,1021.81
2022-08-08T00:55:53.411Z,1021.82
2022-08-08T00:56:49.354Z,1021.80
2022-08-08T00:57:58.202Z,1021.82
2022-08-08T00:58:58.060Z,1021.82
2022-08-08T01:00:05.019Z,1021.82
2022-08-08T01:01:06.903Z,1021.83
2022-08-08T01:03:57.338Z,1021.81
2022-08-08T01:03:58.407Z,1021.80
2022-08-08T01:04:19.954Z,1021.80
2022-08-08T01:05:41.992Z,1021.79
2022-08-08T01:06:28.729Z,1021.80
2022-08-08T01:07:34.376Z,1021.81
2022-08-08T01:08:37.428Z,1021.81
2022-08-08T01:09:41.814Z,1021.80
2022-08-08T01:10:50.907Z,1021.81
2022-08-08T01:11:51.990Z,1021.82
2022-08-08T01:12:54.927Z,1021.84
2022-08-08T01:13:59.322Z,1021.84
2022-08-08T01:15:03.726Z,1021.85
2022-08-08T01:16:08.163Z,1021.86
2022-08-08T01:17:12.793Z,1021.87
2022-08-08T01:18:25.411Z,1021.85
2022-08-08T01:19:41.910Z,1021.87
2022-08-08T01:20:25.787Z,1021.88
2022-08-08T01:22:03.853Z,1021.85
2022-08-08T01:22:35.437Z,1021.88
2022-08-08T01:24:06.377Z,1021.85
2022-08-08T01:24:43.570Z,1021.86
2022-08-08T01:25:47.636Z,1021.86
2022-08-08T01:26:51.992Z,1021.87
2022-08-08T01:28:00.266Z,1021.84
2022-08-08T01:29:00.930Z,1021.86
2022-08-08T01:30:05.131Z,1021.88
2022-08-08T01:31:34.280Z,1021.87
2022-08-08T01:32:16.116Z,1021.85
2022-08-08T01:33:27.505Z,1021.83
2022-08-08T01:34:22.612Z,1021.82
2022-08-08T01:35:29.729Z,1021.81
2022-08-08T01:36:31.407Z,1021.83
2022-08-08T01:37:51.121Z,1021.83
2022-08-08T01:38:40.186Z,1021.82
2022-08-08T01:39:44.654Z,1021.84
2022-08-08T01:40:48.933Z,1021.83
2022-08-08T01:41:53.302Z,1021.82
2022-08-08T01:42:57.679Z,1021.83
2022-08-08T01:44:02.137Z,1021.81
2022-08-08T01:45:06.453Z,1021.81
2022-08-08T01:46:10.917Z,1021.79
2022-08-08T01:48:14.873Z,1021.80
2022-08-08T01:48:30.827Z,1021.80
2022-08-08T01:49:37.554Z,1021.79
2022-08-08T01:50:29.850Z,1021.79
2022-08-08T01:52:41.813Z,1021.78
2022-08-08T01:54:04.389Z,1021.78
2022-08-08T01:55:16.094Z,1021.77
2022-08-08T01:55:45.596Z,1021.80
2022-08-08T01:56:29.877Z,1021.79
2022-08-08T01:56:54.774Z,1021.76
2022-08-08T01:58:11.516Z,1021.79
2022-08-08T01:59:03.615Z,1021.80
2022-08-08T02:00:08.047Z,1021.78
2022-08-08T02:01:16.060Z,1021.78
2022-08-08T02:02:34.875Z,1021.77
2022-08-08T02:03:57.361Z,1021.78
2022-08-08T02:04:25.496Z,1021.79
2022-08-08T02:05:33.945Z,1021.77
2022-08-08T02:06:36.933Z,1021.78
2022-08-08T02:07:41.999Z,1021.77
2022-08-08T02:08:47.174Z,1021.80
2022-08-08T02:10:03.596Z,1021.83
2022-08-08T02:10:51.812Z,1021.83
2022-08-08T02:11:59.777Z,1021.85
2022-08-08T02:13:01.152Z,1021.84
2022-08-08T02:14:05.100Z,1021.85
2022-08-08T02:15:11.080Z,1021.87
2022-08-08T02:16:20.611Z,1021.88
2022-08-08T02:17:20.476Z,1021.88
2022-08-08T02:18:22.526Z,1021.86
2022-08-08T02:19:57.978Z,1021.84
2022-08-08T02:20:59.852Z,1021.84
2022-08-08T02:21:35.627Z,1021.86
2022-08-08T02:22:45.873Z,1021.86
2022-08-08T02:23:44.457Z,1021.87
2022-08-08T02:24:48.859Z,1021.88
2022-08-08T02:25:53.213Z,1021.88
2022-08-08T02:26:57.964Z,1021.88
2022-08-08T02:28:01.930Z,1021.91
2022-08-08T02:29:06.303Z,1021.89
2022-08-08T02:30:13.052Z,1021.92
2022-08-08T02:31:43.278Z,1021.94
2022-08-08T02:32:32.605Z,1021.94
2022-08-08T02:33:23.803Z,1021.96
2022-08-08T02:34:33.098Z,1021.98
2022-08-08T02:35:35.744Z,1022.00
2022-08-08T02:36:37.033Z,1022.00
2022-08-08T02:37:52.544Z,1022.00
2022-08-08T02:38:49.110Z,1021.99
2022-08-08T02:39:59.665Z,1022.02
2022-08-08T02:40:54.516Z,1022.03
2022-08-08T02:42:05.700Z,1022.03
2022-08-08T02:44:38.034Z,1022.01
2022-08-08T02:44:38.658Z,1022.01
2022-08-08T02:45:18.758Z,1022.00
2022-08-08T02:46:16.256Z,1022.01
2022-08-08T02:47:20.618Z,1022.04
2022-08-08T02:48:26.195Z,1022.03
2022-08-08T02:49:51.488Z,1022.04
2022-08-08T02:50:33.789Z,1022.06
2022-08-08T02:51:55.203Z,1022.07
2022-08-08T02:52:42.525Z,1022.06
2022-08-08T02:53:47.328Z,1022.07
2022-08-08T02:54:54.088Z,1022.05
2022-08-08T02:55:57.703Z,1022.04
2022-08-08T02:57:01.882Z,1022.02
2022-08-08T02:58:06.227Z,1022.02
2022-08-08T02:59:26.286Z,1022.02
2022-08-08T03:00:27.276Z,1022.02
2022-08-08T03:01:19.403Z,1022.02
2022-08-08T03:02:28.894Z,1022.03
2022-08-08T03:05:00.854Z,1022.06
2022-08-08T03:05:02.898Z,1022.06
2022-08-08T03:05:45.360Z,1022.05
2022-08-08T03:06:41.238Z,1022.05
2022-08-08T03:07:58.552Z,1022.05
2022-08-08T03:08:52.152Z,1022.05
2022-08-08T03:09:54.366Z,1022.04
2022-08-08T03:10:58.727Z,1022.02
2022-08-08T03:12:06.068Z,1022.05
2022-08-08T03:13:34.143Z,1022.07
2022-08-08T03:16:00.784Z,1022.08
2022-08-08T03:16:03.867Z,1022.09
2022-08-08T03:16:35.525Z,1022.09
2022-08-08T03:17:38.917Z,1022.10
2022-08-08T03:18:30.995Z,1022.12
2022-08-08T03:19:33.735Z,1022.11
2022-08-08T03:20:38.102Z,1022.13
2022-08-08T03:21:58.620Z,1022.14
2022-08-08T03:22:46.777Z,1022.14
2022-08-08T03:23:59.791Z,1022.12
2022-08-08T03:24:57.053Z,1022.12
2022-08-08T03:25:59.882Z,1022.15
2022-08-08T03:27:04.261Z,1022.18
2022-08-08T03:28:08.626Z,1022.17
2022-08-08T03:29:18.591Z,1022.17
2022-08-08T03:30:19.171Z,1022.17
2022-08-08T03:31:25.206Z,1022.13
2022-08-08T03:32:29.152Z,1022.09
2022-08-08T03:33:55.699Z,1022.10
2022-08-08T03:34:34.850Z,1022.08
2022-08-08T03:35:39.171Z,1022.07
2022-08-08T03:36:43.494Z,1022.06
2022-08-08T03:38:53.401Z,1022.08
2022-08-08T03:38:56.432Z,1022.09
2022-08-08T03:40:00.685Z,1022.08
2022-08-08T03:41:01.193Z,1022.11
2022-08-08T03:42:26.932Z,1022.13
2022-08-08T03:43:16.814Z,1022.15
2022-08-08T03:44:14.093Z,1022.16
2022-08-08T03:46:03.307Z,1022.17
2022-08-08T03:46:25.498Z,1022.18
2022-08-08T03:47:39.479Z,1022.19
2022-08-08T03:49:09.082Z,1022.19
2022-08-08T03:49:57.850Z,1022.20
2022-08-08T03:50:40.067Z,1022.19
2022-08-08T03:51:51.378Z,1022.21
2022-08-08T03:52:48.816Z,1022.22
2022-08-08T03:53:53.187Z,1022.22
2022-08-08T03:55:10.211Z,1022.22
2022-08-08T03:56:04.513Z,1022.24
2022-08-08T03:58:09.598Z,1022.25
2022-08-08T03:58:34.174Z,1022.27
2022-08-08T03:59:22.739Z,1022.25
2022-08-08T04:00:19.174Z,1022.26
2022-08-08T04:01:26.067Z,1022.25
2022-08-08T04:02:36.580Z,1022.25
2022-08-08T04:03:57.981Z,1022.26
2022-08-08T04:04:36.657Z,1022.25
2022-08-08T04:05:49.953Z,1022.25
2022-08-08T04:06:45.367Z,1022.27
2022-08-08T04:07:50.870Z,1022.28
2022-08-08T04:08:54.070Z,1022.30
2022-08-08T04:10:03.243Z,1022.28
2022-08-08T04:11:02.751Z,1022.30
2022-08-08T04:12:07.105Z,1022.29
2022-08-08T04:13:17.383Z,1022.32
2022-08-08T04:14:34.661Z,1022.30
2022-08-08T04:15:22.290Z,1022.32
2022-08-08T04:16:40.658Z,1022.31
2022-08-08T04:17:58.253Z,1022.33
2022-08-08T04:18:35.912Z,1022.33
2022-08-08T04:19:37.611Z,1022.34
2022-08-08T04:20:41.974Z,1022.33
2022-08-08T04:21:46.334Z,1022.35
2022-08-08T04:22:51.532Z,1022.33
2022-08-08T04:24:12.289Z,1022.34
2022-08-08T04:24:59.460Z,1022.33
2022-08-08T04:26:09.386Z,1022.31
2022-08-08T04:27:10.619Z,1022.34
2022-08-08T04:28:36.602Z,1022.33
2022-08-08T04:29:16.915Z,1022.33
2022-08-08T04:30:21.372Z,1022.35
2022-08-08T04:31:30.901Z,1022.35
2022-08-08T04:32:30.780Z,1022.36
2022-08-08T04:33:41.553Z,1022.35
2022-08-08T04:34:49.301Z,1022.36
2022-08-08T04:35:51.050Z,1022.38
2022-08-08T04:36:47.603Z,1022.36
2022-08-08T04:37:51.888Z,1022.35
2022-08-08T04:39:47.667Z,1022.36
2022-08-08T04:40:05.664Z,1022.35
2022-08-08T04:41:05.019Z,1022.35
2022-08-08T04:42:09.326Z,1022.35
2022-08-08T04:43:13.684Z,1022.34
2022-08-08T04:44:18.068Z,1022.33
2022-08-08T04:45:22.534Z,1022.32
2022-08-08T04:46:26.857Z,1022.31
2022-08-08T04:47:31.218Z,1022.31
2022-08-08T04:48:35.559Z,1022.31
2022-08-08T04:50:00.403Z,1022.28
2022-08-08T04:50:44.580Z,1022.27
2022-08-08T04:51:57.390Z,1022.28
2022-08-08T04:53:01.077Z,1022.27
2022-08-08T04:54:38.707Z,1022.27
2022-08-08T04:55:01.881Z,1022.26
2022-08-08T04:56:06.162Z,1022.27
2022-08-08T04:57:10.517Z,1022.27
2022-08-08T04:58:14.851Z,1022.28
2022-08-08T04:59:19.204Z,1022.29
2022-08-08T05:00:23.571Z,1022.28
2022-08-08T05:01:35.717Z,1022.30
2022-08-08T05:02:32.485Z,1022.31
2022-08-08T05:04:09.118Z,1022.33
2022-08-08T05:04:41.059Z,1022.34
2022-08-08T05:05:45.774Z,1022.36
2022-08-08T05:06:52.036Z,1022.38
2022-08-08T05:07:54.186Z,1022.38
2022-08-08T05:09:02.315Z,1022.40
2022-08-08T05:10:02.855Z,1022.41
2022-08-08T05:11:07.208Z,1022.41
2022-08-08T05:12:20.390Z,1022.44
2022-08-08T05:13:17.997Z,1022.45
2022-08-08T05:14:20.649Z,1022.45
2022-08-08T05:15:24.640Z,1022.46
2022-08-08T05:16:52.130Z,1022.46
2022-08-08T05:17:53.430Z,1022.47
2022-08-08T05:18:37.705Z,1022.49
2022-08-08T05:20:09.993Z,1022.52
2022-08-08T05:20:49.904Z,1022.48
2022-08-08T05:21:58.014Z,1022.49
2022-08-08T05:22:55.219Z,1022.48
2022-08-08T05:24:04.285Z,1022.49
2022-08-08T05:25:03.910Z,1022.49
2022-08-08T05:26:08.236Z,1022.50
2022-08-08T05:27:12.619Z,1022.49
2022-08-08T05:28:41.494Z,1022.50
2022-08-08T05:29:21.429Z,1022.49
2022-08-08T05:30:28.521Z,1022.49
2022-08-08T05:32:03.576Z,1022.50
2022-08-08T05:32:36.593Z,1022.48
2022-08-08T05:33:44.251Z,1022.46
2022-08-08T05:34:43.462Z,1022.49
2022-08-08T05:35:47.536Z,1022.49
2022-08-08T05:36:51.897Z,1022.49
2022-08-08T05:37:56.239Z,1022.47
2022-08-08T05:39:00.637Z,1022.45
2022-08-08T05:40:04.972Z,1022.47
2022-08-08T05:41:09.330Z,1022.48
2022-08-08T05:42:13.734Z,1022.48
2022-08-08T05:43:39.920Z,1022.47
2022-08-08T05:44:30.959Z,1022.47
2022-08-08T05:45:31.448Z,1022.48
2022-08-08T05:46:31.193Z,1022.48
2022-08-08T05:47:41.675Z,1022.50
2022-08-08T05:48:41.731Z,1022.51
2022-08-08T05:49:54.186Z,1022.51
2022-08-08T05:50:48.755Z,1022.54
2022-08-08T05:51:54.062Z,1022.54
2022-08-08T05:52:57.487Z,1022.54
2022-08-08T05:54:27.261Z,1022.56
2022-08-08T05:55:09.941Z,1022.55
2022-08-08T05:56:15.189Z,1022.54
2022-08-08T05:57:15.333Z,1022.56
2022-08-08T05:58:20.373Z,1022.55
2022-08-08T05:59:59.975Z,1022.54
2022-08-08T06:00:28.269Z,1022.52
2022-08-08T06:01:55.646Z,1022.53
2022-08-08T06:02:36.918Z,1022.52
2022-08-08T06:03:42.090Z,1022.53
2022-08-08T06:04:47.725Z,1022.53
2022-08-08T06:05:51.704Z,1022.52
2022-08-08T06:06:56.629Z,1022.51
2022-08-08T06:08:02.717Z,1022.51
2022-08-08T06:09:57.952Z,1022.54
2022-08-08T06:10:07.497Z,1022.55
2022-08-08T06:11:13.357Z,1022.57
2022-08-08T06:12:18.413Z,1022.57
2022-08-08T06:13:22.723Z,1022.56
2022-08-08T06:14:25.079Z,1022.59
2022-08-08T06:15:50.224Z,1022.61
2022-08-08T06:16:33.880Z,1022.61
2022-08-08T06:17:51.157Z,1022.60
2022-08-08T06:18:42.791Z,1022.60
2022-08-08T06:19:47.038Z,1022.62
2022-08-08T06:20:51.423Z,1022.62
2022-08-08T06:21:57.341Z,1022.63
2022-08-08T06:23:00.233Z,1022.63
2022-08-08T06:24:13.574Z,1022.63
2022-08-08T06:25:08.953Z,1022.62
2022-08-08T06:26:44.527Z,1022.63
2022-08-08T06:27:17.596Z,1022.64
2022-08-08T06:28:29.439Z,1022.63
2022-08-08T06:29:59.593Z,1022.64
2022-08-08T06:30:30.830Z,1022.64
2022-08-08T06:31:52.962Z,1022.67
2022-08-08T06:32:39.638Z,1022.68
2022-08-08T06:34:26.919Z,1022.71
2022-08-08T06:34:56.333Z,1022.69
2022-08-08T06:36:07.312Z,1022.71
2022-08-08T06:36:57.334Z,1022.72
2022-08-08T06:38:01.749Z,1022.69
2022-08-08T06:39:06.057Z,1022.71
2022-08-08T06:40:10.463Z,1022.72
2022-08-08T06:41:15.467Z,1022.71
2022-08-08T06:42:19.228Z,1022.67
2022-08-08T06:43:28.839Z,1022.66
2022-08-08T06:44:29.139Z,1022.67
2022-08-08T06:45:32.477Z,1022.67
2022-08-08T06:46:36.765Z,1022.69
2022-08-08T06:47:52.379Z,1022.70
2022-08-08T06:48:45.927Z,1022.72
2022-08-08T06:49:56.308Z,1022.72
2022-08-08T06:50:54.434Z,1022.74
2022-08-08T06:51:58.836Z,1022.74
2022-08-08T06:53:10.065Z,1022.77
2022-08-08T06:54:09.756Z,1022.76
2022-08-08T06:55:14.078Z,1022.75
2022-08-08T06:56:18.505Z,1022.77
2022-08-08T06:57:22.914Z,1022.76
2022-08-08T06:58:30.365Z,1022.76
2022-08-08T06:59:34.494Z,1022.76
2022-08-08T07:00:36.101Z,1022.77
2022-08-08T07:02:26.423Z,1022.79
2022-08-08T07:02:45.087Z,1022.76
2022-08-08T07:03:52.214Z,1022.77
2022-08-08T07:04:53.846Z,1022.77
2022-08-08T07:06:01.720Z,1022.77
2022-08-08T07:07:10.524Z,1022.75
2022-08-08T07:08:07.007Z,1022.78
2022-08-08T07:09:15.236Z,1022.78
2022-08-08T07:10:15.854Z,1022.76
2022-08-08T07:11:22.682Z,1022.79
2022-08-08T07:12:24.625Z,1022.79
2022-08-08T07:13:29.042Z,1022.76
2022-08-08T07:14:33.524Z,1022.77
2022-08-08T07:16:04.599Z,1022.73
2022-08-08T07:16:51.160Z,1022.73
2022-08-08T07:18:00.867Z,1022.70
2022-08-08T07:18:51.341Z,1022.68
2022-08-08T07:19:59.757Z,1022.70
2022-08-08T07:21:01.871Z,1022.71
2022-08-08T07:22:05.341Z,1022.70
2022-08-08T07:23:09.059Z,1022.66
2022-08-08T07:24:13.559Z,1022.65
2022-08-08T07:25:19.375Z,1022.68
2022-08-08T07:26:29.007Z,1022.67
2022-08-08T07:27:35.004Z,1022.69
2022-08-08T07:28:31.776Z,1022.72
2022-08-08T07:30:02.137Z,1022.71
2022-08-08T07:30:40.061Z,1022.72
2022-08-08T07:31:44.520Z,1022.73
2022-08-08T07:32:48.978Z,1022.71
2022-08-08T07:33:59.217Z,1022.71
2022-08-08T07:35:00.108Z,1022.72
2022-08-08T07:36:02.200Z,1022.74
2022-08-08T07:37:12.078Z,1022.73
2022-08-08T07:38:20.430Z,1022.75
2022-08-08T07:39:15.558Z,1022.76
2022-08-08T07:40:28.722Z,1022.78
2022-08-08T07:41:24.848Z,1022.82
2022-08-08T07:42:33.052Z,1022.83
2022-08-08T07:43:36.895Z,1022.85
2022-08-08T07:44:43.531Z,1022.87
2022-08-08T07:46:05.780Z,1022.87
2022-08-08T07:46:46.434Z,1022.87
2022-08-08T07:47:51.594Z,1022.88
2022-08-08T07:48:55.361Z,1022.88
2022-08-08T07:49:59.804Z,1022.86
2022-08-08T07:51:08.912Z,1022.85
2022-08-08T07:52:13.393Z,1022.86
2022-08-08T07:53:52.433Z,1022.88
2022-08-08T07:54:26.776Z,1022.90
2022-08-08T07:55:24.037Z,1022.92
2022-08-08T07:56:35.498Z,1022.88
2022-08-08T07:57:36.408Z,1022.84
2022-08-08T07:58:37.341Z,1022.87
2022-08-08T07:59:41.796Z,1022.87
2022-08-08T08:00:46.356Z,1022.87
2022-08-08T08:02:35.201Z,1022.88
2022-08-08T08:02:55.018Z,1022.89
2022-08-08T08:03:59.491Z,1022.90
2022-08-08T08:05:03.954Z,1022.90
2022-08-08T08:06:08.443Z,1022.91
2022-08-08T08:07:12.834Z,1022.92
2022-08-08T08:08:18.940Z,1022.93
2022-08-08T08:09:21.660Z,1022.94
2022-08-08T08:10:30.497Z,1022.94
2022-08-08T08:11:38.074Z,1022.93
2022-08-08T08:12:41.290Z,1022.91
2022-08-08T08:13:42.482Z,1022.89
2022-08-08T08:14:43.805Z,1022.91
2022-08-08T08:15:48.315Z,1022.91
2022-08-08T08:16:52.744Z,1022.93
2022-08-08T08:17:57.445Z,1022.88
2022-08-08T08:19:01.578Z,1022.89
2022-08-08T08:20:06.044Z,1022.89
2022-08-08T08:21:18.543Z,1022.90
2022-08-08T08:22:15.243Z,1022.93
2022-08-08T08:23:19.315Z,1022.93
2022-08-08T08:24:30.356Z,1022.94
2022-08-08T08:25:43.196Z,1022.92
2022-08-08T08:26:32.648Z,1022.92
2022-08-08T08:27:37.081Z,1022.93
2022-08-08T08:28:41.541Z,1022.94
2022-08-08T08:29:51.984Z,1022.95
2022-08-08T08:30:50.349Z,1022.94
2022-08-08T08:31:57.831Z,1022.93
2022-08-08T08:32:59.387Z,1022.91
2022-08-08T08:34:03.656Z,1022.91
2022-08-08T08:35:08.091Z,1022.93
2022-08-08T08:36:20.374Z,1022.92
2022-08-08T08:37:20.249Z,1022.92
2022-08-08T08:38:21.419Z,1022.93
2022-08-08T08:39:59.839Z,1022.91
2022-08-08T08:40:30.306Z,1022.94
2022-08-08T08:41:34.717Z,1022.95
2022-08-08T08:42:39.158Z,1022.94
2022-08-08T08:43:45.128Z,1022.90
2022-08-08T08:44:48.029Z,1022.93
2022-08-08T08:45:57.126Z,1022.93
2022-08-08T08:46:58.659Z,1022.92
2022-08-08T08:48:01.440Z,1022.91
2022-08-08T08:49:05.779Z,1022.92
2022-08-08T08:50:27.877Z,1022.94
2022-08-08T08:51:14.605Z,1022.92
2022-08-08T08:52:20.573Z,1022.91
2022-08-08T08:53:55.361Z,1022.91
2022-08-08T08:54:27.943Z,1022.91
2022-08-08T08:55:39.265Z,1022.92
2022-08-08T08:56:38.947Z,1022.96
2022-08-08T08:57:43.397Z,1022.98
2022-08-08T08:58:50.409Z,1022.98
2022-08-08T08:59:58.989Z,1022.99
2022-08-08T09:01:08.793Z,1022.97
2022-08-08T09:02:01.195Z,1022.98
2022-08-08T09:03:05.595Z,1022.98
2022-08-08T09:04:30.263Z,1022.93
2022-08-08T09:05:29.083Z,1022.94
2022-08-08T09:06:26.504Z,1022.95
2022-08-08T09:07:23.635Z,1022.95
2022-08-08T09:08:28.009Z,1022.97
2022-08-08T09:09:40.335Z,1022.96
2022-08-08T09:10:36.950Z,1022.97
2022-08-08T09:11:47.582Z,1022.98
2022-08-08T09:12:45.894Z,1023.02
2022-08-08T09:13:50.315Z,1023.03
2022-08-08T09:14:54.794Z,1023.02
2022-08-08T09:16:03.518Z,1023.00
2022-08-08T09:17:11.669Z,1022.98
2022-08-08T09:18:08.757Z,1023.00
2022-08-08T09:19:12.729Z,1022.98
2022-08-08T09:21:57.825Z,1022.97
2022-08-08T09:22:01.475Z,1022.98
2022-08-08T09:22:26.856Z,1022.98
2022-08-08T09:23:44.518Z,1022.97
2022-08-08T09:24:47.798Z,1022.98
2022-08-08T09:25:55.003Z,1022.98
2022-08-08T09:26:56.615Z,1022.95
2022-08-08T09:28:01.461Z,1022.96
2022-08-08T09:29:08.391Z,1022.99
2022-08-08T09:30:10.053Z,1022.98
2022-08-08T09:31:14.576Z,1022.98
2022-08-08T09:32:19.483Z,1022.97
2022-08-08T09:34:06.140Z,1022.95
2022-08-08T09:34:34.282Z,1022.96
2022-08-08T09:35:37.276Z,1022.99
2022-08-08T09:36:37.863Z,1023.02
2022-08-08T09:38:01.992Z,1023.00
2022-08-08T09:38:52.419Z,1022.97
2022-08-08T09:39:50.208Z,1022.93
2022-08-08T09:40:58.095Z,1022.89
2022-08-08T09:42:20.552Z,1022.89
2022-08-08T09:43:06.831Z,1022.88
2022-08-08T09:44:15.204Z,1022.91
2022-08-08T09:45:20.598Z,1022.89
2022-08-08T09:46:25.767Z,1022.89
2022-08-08T09:48:04.625Z,1022.88
2022-08-08T09:48:32.427Z,1022.88
2022-08-08T09:49:42.306Z,1022.87
2022-08-08T09:50:34.924Z,1022.85
2022-08-08T09:52:01.883Z,1022.84
2022-08-08T09:52:54.098Z,1022.87
2022-08-08T09:53:59.869Z,1022.88
2022-08-08T09:54:52.575Z,1022.87
2022-08-08T09:56:06.116Z,1022.85
2022-08-08T09:57:01.501Z,1022.88
2022-08-08T09:58:06.001Z,1022.88
2022-08-08T09:59:39.457Z,1022.92
2022-08-08T10:00:34.527Z,1022.95
2022-08-08T10:02:02.149Z,1022.93
2022-08-08T10:02:23.744Z,1022.92
2022-08-08T10:03:28.210Z,1022.94
2022-08-08T10:04:41.799Z,1022.95
2022-08-08T10:05:37.267Z,1022.95
2022-08-08T10:06:41.569Z,1022.97
2022-08-08T10:07:46.096Z,1022.95
2022-08-08T10:08:50.534Z,1022.96
2022-08-08T10:09:59.713Z,1022.96
2022-08-08T10:10:59.574Z,1022.94
2022-08-08T10:12:26.623Z,1022.92
2022-08-08T10:13:14.539Z,1022.91
2022-08-08T10:14:28.606Z,1022.89
2022-08-08T10:15:18.747Z,1022.86
2022-08-08T10:16:21.649Z,1022.86
2022-08-08T10:18:06.519Z,1022.82
2022-08-08T10:18:30.701Z,1022.83
2022-08-08T10:19:46.120Z,1022.81
2022-08-08T10:20:41.475Z,1022.80
2022-08-08T10:21:50.218Z,1022.78
2022-08-08T10:22:54.610Z,1022.77
2022-08-08T10:23:58.063Z,1022.75
2022-08-08T10:24:57.305Z,1022.72
2022-08-08T10:26:01.856Z,1022.70
2022-08-08T10:27:06.344Z,1022.66
2022-08-08T10:28:15.213Z,1022.67
2022-08-08T10:29:21.122Z,1022.65
2022-08-08T10:30:57.403Z,1022.65
2022-08-08T10:31:46.489Z,1022.61
2022-08-08T10:32:28.558Z,1022.63
2022-08-08T10:33:38.312Z,1022.65
2022-08-08T10:34:37.465Z,1022.61
2022-08-08T10:36:08.598Z,1022.68
2022-08-08T10:36:46.446Z,1022.67
2022-08-08T10:37:50.778Z,1022.65
2022-08-08T10:38:55.298Z,1022.64
2022-08-08T10:39:59.786Z,1022.68
2022-08-08T10:41:04.178Z,1022.67
2022-08-08T10:42:15.423Z,1022.69
2022-08-08T10:43:13.143Z,1022.67
2022-08-08T10:44:17.610Z,1022.68
2022-08-08T10:45:22.037Z,1022.68
2022-08-08T10:46:29.581Z,1022.68
2022-08-08T10:47:43.698Z,1022.69
2022-08-08T10:48:57.689Z,1022.69
2022-08-08T10:50:02.045Z,1022.71
2022-08-08T10:50:44.372Z,1022.66
2022-08-08T10:51:51.440Z,1022.66
2022-08-08T10:52:53.329Z,1022.70
2022-08-08T10:53:59.824Z,1022.69
2022-08-08T10:55:05.140Z,1022.66
2022-08-08T10:56:06.677Z,1022.66
2022-08-08T10:57:11.131Z,1022.64
2022-08-08T10:58:15.999Z,1022.59
2022-08-08T10:59:20.104Z,1022.59
2022-08-08T11:00:25.501Z,1022.56
2022-08-08T11:01:29.238Z,1022.55
2022-08-08T11:02:34.064Z,1022.54
2022-08-08T11:04:00.487Z,1022.53
2022-08-08T11:04:42.556Z,1022.52
2022-08-08T11:05:47.059Z,1022.52
2022-08-08T11:06:54.546Z,1022.53
2022-08-08T11:08:31.441Z,1022.51
2022-08-08T11:09:02.630Z,1022.49
2022-08-08T11:10:07.109Z,1022.52
2022-08-08T11:12:00.013Z,1022.50
2022-08-08T11:12:16.117Z,1022.49
2022-08-08T11:13:30.053Z,1022.50
2022-08-08T11:14:27.777Z,1022.48
2022-08-08T11:15:30.571Z,1022.50
2022-08-08T11:16:34.585Z,1022.49
2022-08-08T11:18:00.052Z,1022.52
2022-08-08T11:18:42.878Z,1022.53
2022-08-08T11:19:52.793Z,1022.51
2022-08-08T11:20:52.146Z,1022.50
2022-08-08T11:21:56.490Z,1022.50
2022-08-08T11:23:00.739Z,1022.52
2022-08-08T11:24:05.417Z,1022.51
2022-08-08T11:25:13.721Z,1022.52
2022-08-08T11:26:18.639Z,1022.52
2022-08-08T11:27:19.658Z,1022.57
2022-08-08T11:28:23.005Z,1022.56
2022-08-08T11:29:41.476Z,1022.59
2022-08-08T11:30:32.046Z,1022.59
2022-08-08T11:31:48.185Z,1022.54
2022-08-08T11:32:47.597Z,1022.55
2022-08-08T11:33:53.117Z,1022.57
2022-08-08T11:35:08.955Z,1022.55
2022-08-08T11:35:56.358Z,1022.55
2022-08-08T11:37:00.835Z,1022.56
2022-08-08T11:38:36.289Z,1022.57
2022-08-08T11:39:10.854Z,1022.58
2022-08-08T11:40:14.229Z,1022.59
2022-08-08T11:41:18.655Z,1022.60
2022-08-08T11:42:26.917Z,1022.63
2022-08-08T11:43:38.803Z,1022.61
2022-08-08T11:44:32.115Z,1022.62
2022-08-08T11:45:59.804Z,1022.62
2022-08-08T11:46:41.022Z,1022.63
2022-08-08T11:48:02.526Z,1022.62
2022-08-08T11:48:49.919Z,1022.62
2022-08-08T11:49:54.364Z,1022.64
2022-08-08T11:50:58.843Z,1022.66
2022-08-08T11:52:03.465Z,1022.68
2022-08-08T11:53:07.716Z,1022.68
2022-08-08T11:54:31.986Z,1022.71
2022-08-08T11:55:16.518Z,1022.69
2022-08-08T11:56:24.048Z,1022.71
2022-08-08T11:57:30.275Z,1022.70
2022-08-08T11:58:32.028Z,1022.69
2022-08-08T11:59:57.782Z,1022.69
2022-08-08T12:00:40.899Z,1022.71
2022-08-08T12:01:45.348Z,1022.73
2022-08-08T12:02:51.418Z,1022.72
2022-08-08T12:03:58.914Z,1022.71
2022-08-08T12:04:58.684Z,1022.67
2022-08-08T12:06:03.137Z,1022.69
2022-08-08T12:07:08.094Z,1022.70
2022-08-08T12:08:12.023Z,1022.71
2022-08-08T12:09:17.416Z,1022.72
2022-08-08T12:10:20.888Z,1022.71
2022-08-08T12:11:28.592Z,1022.67
2022-08-08T12:12:30.090Z,1022.66
2022-08-08T12:14:02.331Z,1022.63
2022-08-08T12:14:38.770Z,1022.62
2022-08-08T12:15:47.306Z,1022.63
2022-08-08T12:16:48.963Z,1022.63
2022-08-08T12:17:52.178Z,1022.65
2022-08-08T12:18:56.621Z,1022.62
2022-08-08T12:20:01.091Z,1022.64
2022-08-08T12:21:05.551Z,1022.64
2022-08-08T12:22:12.741Z,1022.66
2022-08-08T12:23:30.162Z,1022.67
2022-08-08T12:24:19.029Z,1022.63
2022-08-08T12:25:29.889Z,1022.64
2022-08-08T12:26:35.838Z,1022.59
2022-08-08T12:27:43.384Z,1022.62
2022-08-08T12:28:36.922Z,1022.63
2022-08-08T12:29:45.057Z,1022.63
2022-08-08T12:30:48.202Z,1022.60
2022-08-08T12:31:53.203Z,1022.61
2022-08-08T12:32:54.844Z,1022.63
2022-08-08T12:34:02.670Z,1022.60
2022-08-08T12:35:04.733Z,1022.63
2022-08-08T12:36:08.258Z,1022.64
2022-08-08T12:37:12.727Z,1022.63
2022-08-08T12:38:18.765Z,1022.65
2022-08-08T12:39:21.729Z,1022.65
2022-08-08T12:40:26.202Z,1022.65
2022-08-08T12:41:35.114Z,1022.65
2022-08-08T12:42:35.119Z,1022.64
2022-08-08T12:43:47.863Z,1022.65
2022-08-08T12:44:43.990Z,1022.64
2022-08-08T12:45:57.922Z,1022.67
2022-08-08T12:46:57.345Z,1022.66
2022-08-08T12:48:04.693Z,1022.64
2022-08-08T12:50:06.329Z,1022.62
2022-08-08T12:51:11.834Z,1022.62
2022-08-08T12:52:28.698Z,1022.59
2022-08-08T12:53:19.841Z,1022.57
2022-08-08T12:54:25.254Z,1022.55
2022-08-08T12:55:35.689Z,1022.57
2022-08-08T12:56:33.289Z,1022.57
2022-08-08T12:57:38.334Z,1022.60
2022-08-08T12:58:42.255Z,1022.60
2022-08-08T13:00:03.436Z,1022.57